Airfield :







YOU CAN JOIN US ON...

 
LOGIN :

Register | Disclaimer

   EN    FR    IT 

 









Legend :    VFR   Marginal VFR   IFR   Intensive IFR   Very Intensive IFR
Visi :
Ceiling :
>= 8 km
>= 3000ft
5 to 8 km
1000 to 3000 ft
1500m to 5 km
500 to 1000 ft
800 to 1500m
200 to 500 ft
< 800m
< 200 ft
Symbols :   Thunderstorms  Fog  Heavy snow  Heavy precipitations  Wind > 20 kt







- Airport Elevation : 1188 ft


KCDA - Caledonia County

CURRENT METAR :
  • 201755Z AUTO 00000KT 10SM CLR 22/11 A3018 RMK AO2 T02220113 10222 20057

EXPIRED METARs :
  • 201739Z AUTO 00000KT 10SM CLR 22/11 A3019 RMK AO2 T02160106
  • 201716Z AUTO 22003KT 10SM CLR 21/11 A3020 RMK AO2 T02130107
  • 201658Z AUTO 00000KT 10SM CLR 21/10 A3020 RMK AO2 T02090100
  • 201635Z AUTO 00000KT 10SM CLR 20/10 A3021 RMK AO2 T02000101
  • 201619Z AUTO 00000KT 10SM CLR 20/10 A3022 RMK AO2 T01960102
  • 201556Z AUTO 06003KT 10SM CLR 18/10 A3023 RMK AO2 T01830096
  • 201539Z AUTO 00000KT 10SM CLR 18/09 A3023 RMK AO2 T01750087
  • 201516Z AUTO 00000KT 10SM CLR 16/09 A3024 RMK AO2 T01580086

TAF N/A
No reported NOTAMs for that airfield.



MET'MAP, your aeronautical weather chart ! - Copyright ORBIFLY December 2007 - Disclaimer

ORBIFLY MET'MAP TEAM :

Programming & Development : Alexandra Zaïnal
Concept & Development : Baudouin d'Aumeries
Co-Development & Prog : Marc-Olivier Méhu
Technical & hardware support : Manuel Goepfert

Contact : metmap@orbifly.com




SOURCES & CREDITS :

   NOAA